Time;durP1;ratioP1;P1;durP2;ratioP2;P2;SDS_P1;SDS_P2;PMS_P1;PMS_P2;Temp;Humidity;BMP_temperature;BMP_pressure;BME280_temperature;BME280_humidity;BME280_pressure;Samples;Min_cycle;Max_cycle;Signal;HPM_P1;HPM_P2
2021/06/25 00:02:02;;;;;;;0.00;0.00;;;;;;;25.82;66.18;100248.13;5009421;28;20050;-73
2021/06/25 00:04:28;;;;;;;0.00;0.00;;;;;;;25.61;67.17;100244.28;5017785;28;20521;-73
2021/06/25 00:06:54;;;;;;;0.00;0.00;;;;;;;25.66;67.54;100247.53;5026115;28;20056;-69
2021/06/25 00:09:20;;;;;;;0.00;0.00;;;;;;;25.65;67.76;100246.69;5023612;28;20748;-66
2021/06/25 00:11:46;;;;;;;0.00;0.00;;;;;;;25.60;68.33;100237.97;5025928;28;20038;-71
2021/06/25 00:14:12;;;;;;;0.05;0.00;;;;;;;25.65;68.86;100245.81;5029260;28;20044;-70
2021/06/25 00:16:38;;;;;;;0.10;0.00;;;;;;;25.61;69.32;100245.19;5008096;28;20072;-65
2021/06/25 00:19:03;;;;;;;0.00;0.00;;;;;;;25.55;69.39;100242.03;5024543;28;20088;-72
2021/06/25 00:21:29;;;;;;;0.10;0.00;;;;;;;25.42;69.94;100230.34;5009968;28;20136;-70
2021/06/25 00:23:55;;;;;;;0.00;0.00;;;;;;;25.46;70.20;100245.41;5027603;28;20489;-74
2021/06/25 00:26:21;;;;;;;0.00;0.00;;;;;;;25.30;70.57;100228.50;5005052;28;20042;-70
2021/06/25 00:28:47;;;;;;;0.00;0.00;;;;;;;25.30;70.79;100212.22;4994889;28;20335;-73
2021/06/25 00:31:15;;;;;;;0.00;0.00;;;;;;;25.36;71.14;100219.94;4993269;28;20095;-72
2021/06/25 00:33:40;;;;;;;0.00;0.00;;;;;;;25.36;70.53;100226.22;5004785;28;20042;-64
2021/06/25 00:36:06;;;;;;;0.00;0.00;;;;;;;25.33;70.76;100220.16;5024779;28;20102;-67
2021/06/25 00:38:32;;;;;;;0.00;0.00;;;;;;;25.25;71.25;100204.41;5036511;28;20062;-72
2021/06/25 00:40:58;;;;;;;0.00;0.00;;;;;;;25.32;71.33;100223.84;5037718;28;20124;-66
2021/06/25 00:43:23;;;;;;;0.10;0.00;;;;;;;25.35;71.48;100223.59;5006936;28;20033;-72
2021/06/25 00:45:49;;;;;;;0.00;0.00;;;;;;;25.32;71.70;100232.00;5012577;28;20557;-72
2021/06/25 00:48:16;;;;;;;0.00;0.00;;;;;;;25.28;72.49;100228.63;4999758;28;20045;-73
2021/06/25 00:50:41;;;;;;;0.00;0.00;;;;;;;25.20;72.23;100206.56;5025780;28;20136;-68
2021/06/25 00:53:07;;;;;;;0.00;0.00;;;;;;;25.27;72.55;100216.00;5011269;28;20132;-73
2021/06/25 00:55:41;;;;;;;0.00;0.00;;;;;;;25.22;72.73;100201.91;5019436;28;20091;-73
2021/06/25 00:58:12;;;;;;;0.00;0.00;;;;;;;25.14;72.66;100190.72;5007808;28;20049;-74
2021/06/25 01:00:38;;;;;;;0.08;0.00;;;;;;;25.12;72.98;100186.41;5004245;28;20041;-69
2021/06/25 01:03:04;;;;;;;0.00;0.00;;;;;;;25.19;73.06;100191.25;5015513;28;20037;-68
2021/06/25 01:05:30;;;;;;;0.00;0.00;;;;;;;25.19;72.97;100183.09;5021333;28;20048;-67
2021/06/25 01:07:56;;;;;;;0.00;0.00;;;;;;;25.20;72.55;100181.28;5017444;28;20140;-66
2021/06/25 01:10:22;;;;;;;0.10;0.00;;;;;;;25.20;71.63;100175.84;4987099;28;20420;-69
2021/06/25 01:12:48;;;;;;;0.00;0.00;;;;;;;25.23;69.99;100173.75;5010802;28;20041;-68
2021/06/25 01:15:14;;;;;;;0.00;0.00;;;;;;;25.25;69.37;100176.38;5009826;28;20057;-68
2021/06/25 01:17:42;;;;;;;0.10;0.00;;;;;;;25.28;69.02;100177.03;5010837;28;20402;-68
2021/06/25 01:20:09;;;;;;;0.00;0.00;;;;;;;25.29;68.92;100172.47;5022194;28;20106;-68
2021/06/25 01:22:39;;;;;;;0.00;0.00;;;;;;;25.25;69.00;100162.78;5014522;28;20077;-68
2021/06/25 01:25:08;;;;;;;0.00;0.00;;;;;;;25.31;69.87;100163.22;4985972;28;20042;-67
2021/06/25 01:27:35;;;;;;;0.00;0.00;;;;;;;25.25;69.96;100157.38;4999382;28;20046;-68
2021/06/25 01:30:02;;;;;;;0.00;0.00;;;;;;;25.28;70.04;100154.47;4992085;28;20091;-69
2021/06/25 01:32:30;;;;;;;0.00;0.00;;;;;;;25.39;69.53;100176.22;5005749;28;20102;-66
2021/06/25 01:34:59;;;;;;;0.00;0.00;;;;;;;25.35;69.49;100180.16;5019532;28;20073;-68
2021/06/25 01:37:31;;;;;;;0.00;0.00;;;;;;;25.26;69.85;100175.38;5023200;28;20052;-68
2021/06/25 01:39:58;;;;;;;0.00;0.00;;;;;;;25.34;70.10;100178.44;5005383;28;20143;-65
2021/06/25 01:42:23;;;;;;;0.10;0.00;;;;;;;25.18;70.16;100184.09;5023395;28;20041;-67
2021/06/25 01:44:52;;;;;;;0.00;0.00;;;;;;;24.99;70.45;100190.97;5020363;28;20064;-67
2021/06/25 01:47:18;;;;;;;0.00;0.00;;;;;;;24.68;70.92;100184.16;5019545;28;20046;-67
2021/06/25 01:49:46;;;;;;;0.00;0.00;;;;;;;24.35;72.49;100193.75;5013338;28;20517;-68
2021/06/25 01:52:17;;;;;;;0.00;0.00;;;;;;;23.86;75.03;100200.78;5006625;28;20171;-76
2021/06/25 01:54:44;;;;;;;0.00;0.00;;;;;;;23.67;77.38;100217.38;5032761;28;20056;-78
2021/06/25 01:57:10;;;;;;;0.00;0.00;;;;;;;23.84;77.89;100199.97;5022871;28;20128;-77
2021/06/25 01:59:36;;;;;;;0.10;0.00;;;;;;;24.17;76.95;100179.63;5014714;28;20046;-78
2021/06/25 02:02:02;;;;;;;0.00;0.00;;;;;;;24.44;75.94;100176.88;5021260;28;20041;-73
2021/06/25 02:04:29;;;;;;;0.00;0.00;;;;;;;24.58;75.01;100169.50;5025533;28;20218;-65
2021/06/25 02:06:54;;;;;;;0.08;0.00;;;;;;;24.74;74.47;100186.44;5024317;28;20099;-68
2021/06/25 02:09:21;;;;;;;0.05;0.00;;;;;;;24.87;73.97;100197.25;5014893;28;20421;-71
2021/06/25 02:11:47;;;;;;;0.00;0.00;;;;;;;24.97;73.22;100206.50;5015446;28;20045;-70
2021/06/25 02:14:13;;;;;;;0.15;0.10;;;;;;;25.07;72.84;100196.69;5019725;28;20041;-73
2021/06/25 02:16:38;;;;;;;0.20;0.00;;;;;;;25.10;72.43;100205.50;5017418;28;20816;-72
2021/06/25 02:19:04;;;;;;;0.00;0.00;;;;;;;24.81;72.21;100197.72;5019711;28;20111;-70
2021/06/25 02:21:30;;;;;;;0.25;0.00;;;;;;;24.56;73.60;100203.13;5023811;28;20059;-71
2021/06/25 02:23:56;;;;;;;0.00;0.00;;;;;;;24.78;72.78;100214.22;5023419;28;20041;-70
2021/06/25 02:26:22;;;;;;;0.00;0.00;;;;;;;24.91;73.06;100215.06;5024025;28;20540;-71
2021/06/25 02:28:48;;;;;;;0.00;0.00;;;;;;;25.02;71.46;100212.44;5015079;28;20053;-72
2021/06/25 02:31:14;;;;;;;0.00;0.00;;;;;;;24.98;70.30;100219.97;5022293;28;20053;-65
2021/06/25 02:33:40;;;;;;;0.10;0.00;;;;;;;24.85;71.07;100223.66;5020560;28;20148;-71
2021/06/25 02:36:05;;;;;;;0.00;0.00;;;;;;;24.47;72.29;100220.91;5020802;28;20042;-71
2021/06/25 02:38:31;;;;;;;0.00;0.00;;;;;;;24.53;72.16;100204.19;5004797;28;20453;-72
2021/06/25 02:40:57;;;;;;;0.00;0.00;;;;;;;24.83;71.45;100214.75;5006198;28;20046;-71
2021/06/25 02:43:23;;;;;;;0.00;0.00;;;;;;;24.77;71.58;100218.75;5019679;28;20391;-72
2021/06/25 02:45:49;;;;;;;0.00;0.00;;;;;;;24.68;72.09;100208.56;5008044;28;20080;-70
2021/06/25 02:48:15;;;;;;;0.00;0.00;;;;;;;24.72;71.67;100199.22;5024381;28;20084;-70
2021/06/25 02:50:41;;;;;;;0.00;0.00;;;;;;;24.95;70.82;100206.59;5021350;28;20047;-81
2021/06/25 02:53:07;;;;;;;0.05;0.00;;;;;;;24.85;70.71;100212.81;5012230;28;20050;-83
2021/06/25 02:55:33;;;;;;;0.00;0.00;;;;;;;24.99;70.64;100205.41;5004220;28;20042;-82
2021/06/25 02:58:00;;;;;;;0.00;0.00;;;;;;;25.11;70.79;100204.50;5018314;28;20043;-75
2021/06/25 03:00:28;;;;;;;0.00;0.00;;;;;;;25.23;70.31;100206.34;5008004;28;20525;-84
2021/06/25 03:02:54;;;;;;;0.00;0.00;;;;;;;25.25;69.63;100207.13;5024053;28;20050;-81
2021/06/25 03:05:21;;;;;;;0.00;0.00;;;;;;;25.33;68.86;100209.28;5022161;28;20046;-82
2021/06/25 03:07:47;;;;;;;0.00;0.00;;;;;;;25.33;68.57;100196.59;5019102;28;20045;-70
2021/06/25 03:10:14;;;;;;;0.00;0.00;;;;;;;25.46;68.87;100202.84;5026207;28;20037;-70
2021/06/25 03:12:42;;;;;;;0.00;0.00;;;;;;;25.48;68.76;100205.44;5024034;28;20052;-66
2021/06/25 03:15:09;;;;;;;0.20;0.00;;;;;;;25.53;68.40;100214.13;5015077;28;20119;-66
2021/06/25 03:17:35;;;;;;;0.00;0.00;;;;;;;25.51;67.84;100213.34;5026712;28;20071;-68
2021/06/25 03:20:03;;;;;;;0.00;0.00;;;;;;;25.60;67.81;100205.38;5026841;28;20053;-75
2021/06/25 03:22:29;;;;;;;0.10;0.00;;;;;;;25.68;68.01;100197.53;5032916;28;20683;-72
2021/06/25 03:24:54;;;;;;;0.00;0.00;;;;;;;25.71;67.66;100201.91;5023876;28;20073;-73
2021/06/25 03:27:20;;;;;;;0.00;0.00;;;;;;;25.79;67.45;100204.91;5017245;28;20049;-74
2021/06/25 03:29:46;;;;;;;0.00;0.00;;;;;;;25.91;66.65;100206.69;5007808;28;20156;-72
2021/06/25 03:32:12;;;;;;;0.00;0.00;;;;;;;26.02;64.78;100200.47;5008351;28;20048;-63
2021/06/25 03:34:38;;;;;;;0.00;0.00;;;;;;;26.14;65.07;100194.09;5009354;28;20751;-68
2021/06/25 03:37:04;;;;;;;0.00;0.00;;;;;;;26.22;64.03;100195.22;5015079;28;20045;-70
2021/06/25 03:39:30;;;;;;;0.00;0.00;;;;;;;26.30;63.93;100189.19;5018516;28;20133;-69
2021/06/25 03:41:56;;;;;;;0.00;0.00;;;;;;;26.37;63.16;100190.47;5017762;28;20042;-68
2021/06/25 03:44:21;;;;;;;0.10;0.00;;;;;;;26.45;62.23;100186.13;5020748;28;20055;-68
2021/06/25 03:46:47;;;;;;;0.00;0.00;;;;;;;26.48;61.50;100183.19;5035673;28;20102;-68
2021/06/25 03:49:13;;;;;;;0.00;0.00;;;;;;;26.61;61.00;100194.84;5023834;28;20497;-67
2021/06/25 03:51:39;;;;;;;0.00;0.00;;;;;;;26.59;59.65;100174.19;5024148;28;20560;-71
2021/06/25 03:54:05;;;;;;;0.00;0.00;;;;;;;26.79;57.76;100187.97;5040577;28;20057;-70
2021/06/25 03:56:30;;;;;;;0.00;0.00;;;;;;;26.87;57.02;100184.63;5043725;28;20044;-69
2021/06/25 03:58:56;;;;;;;0.00;0.00;;;;;;;26.95;56.30;100168.53;5029016;28;20053;-66
2021/06/25 04:01:22;;;;;;;0.00;0.00;;;;;;;27.05;55.59;100172.25;5034494;28;20041;-71
2021/06/25 04:03:48;;;;;;;0.00;0.00;;;;;;;27.09;55.28;100166.44;5033506;28;20076;-68
2021/06/25 04:06:15;;;;;;;0.00;0.00;;;;;;;27.16;54.49;100170.38;5023318;28;20048;-68
2021/06/25 04:08:41;;;;;;;0.28;0.00;;;;;;;27.22;53.86;100169.06;5004573;28;20445;-69
2021/06/25 04:11:07;;;;;;;0.00;0.00;;;;;;;27.28;53.42;100183.03;5017435;28;20056;-71
2021/06/25 04:13:34;;;;;;;0.00;0.00;;;;;;;27.24;53.21;100165.22;5016584;28;20046;-65
2021/06/25 04:16:01;;;;;;;0.00;0.00;;;;;;;27.31;52.83;100169.16;4988581;28;20100;-65
2021/06/25 04:18:27;;;;;;;0.00;0.00;;;;;;;27.42;52.89;100192.81;5035133;28;20064;-63
2021/06/25 04:20:54;;;;;;;0.00;0.00;;;;;;;27.47;52.78;100187.84;4995454;28;20444;-66
2021/06/25 04:23:21;;;;;;;0.00;0.00;;;;;;;27.50;52.51;100203.94;4987677;28;20045;-69
2021/06/25 04:25:46;;;;;;;0.00;0.00;;;;;;;27.57;52.76;100199.72;5010214;28;20358;-66
2021/06/25 04:28:13;;;;;;;0.00;0.00;;;;;;;27.59;52.50;100211.34;5031747;28;20052;-66
2021/06/25 04:30:41;;;;;;;0.00;0.00;;;;;;;27.64;52.24;100211.84;5003736;28;20037;-69
2021/06/25 04:33:09;;;;;;;0.00;0.00;;;;;;;27.70;52.37;100194.97;5015366;28;20053;-64
2021/06/25 04:35:39;;;;;;;0.00;0.00;;;;;;;27.73;52.10;100194.72;5021030;28;20037;-66
2021/06/25 04:38:05;;;;;;;0.00;0.00;;;;;;;27.80;52.17;100188.63;4992596;28;20332;-68
2021/06/25 04:40:32;;;;;;;0.00;0.00;;;;;;;27.91;51.47;100204.09;5034983;28;20125;-66
2021/06/25 04:42:58;;;;;;;0.00;0.00;;;;;;;27.98;51.04;100199.88;5000090;28;20073;-67
2021/06/25 04:45:25;;;;;;;0.10;0.00;;;;;;;27.93;51.24;100181.16;4999074;28;20033;-68
2021/06/25 04:47:51;;;;;;;0.00;0.00;;;;;;;28.04;51.33;100196.63;5036187;28;20513;-67
2021/06/25 04:50:17;;;;;;;0.00;0.00;;;;;;;28.07;51.35;100186.31;5014663;28;20085;-66
2021/06/25 04:52:43;;;;;;;0.00;0.00;;;;;;;28.20;51.53;100194.34;5026138;28;20201;-67
2021/06/25 04:55:10;;;;;;;0.00;0.00;;;;;;;28.17;51.13;100180.94;5024772;28;20120;-65
2021/06/25 04:57:39;;;;;;;0.10;0.00;;;;;;;28.31;50.47;100194.25;5009118;28;20051;-70
2021/06/25 05:00:08;;;;;;;0.10;0.00;;;;;;;28.35;50.16;100198.44;5004849;28;20415;-67
2021/06/25 05:02:34;;;;;;;0.00;0.00;;;;;;;28.36;50.52;100183.84;4998051;28;20099;-65
2021/06/25 05:04:59;;;;;;;0.00;0.00;;;;;;;28.50;50.17;100199.88;5023589;28;20042;-64
2021/06/25 05:07:26;;;;;;;0.00;0.00;;;;;;;28.58;50.70;100200.09;5013443;28;20056;-64
2021/06/25 05:09:52;;;;;;;0.00;0.00;;;;;;;28.51;50.56;100182.50;5024670;28;20056;-65
2021/06/25 05:12:17;;;;;;;0.10;0.00;;;;;;;28.60;50.44;100198.09;5022550;28;20041;-66
2021/06/25 05:14:43;;;;;;;0.00;0.00;;;;;;;28.70;50.54;100201.75;5026467;28;20064;-65
2021/06/25 05:17:09;;;;;;;1.45;0.00;;;;;;;28.81;50.19;100197.09;5017600;28;20501;-63
2021/06/25 05:19:35;;;;;;;0.00;0.00;;;;;;;28.89;49.79;100196.41;5036534;28;20171;-64
2021/06/25 05:22:00;;;;;;;0.00;0.00;;;;;;;28.93;49.81;100196.00;5045849;28;20520;-63
2021/06/25 05:24:26;;;;;;;0.00;0.00;;;;;;;28.98;49.76;100192.84;5024568;28;20162;-64
2021/06/25 05:26:52;;;;;;;0.00;0.00;;;;;;;29.04;49.16;100190.47;5036935;28;20141;-69
2021/06/25 05:29:18;;;;;;;0.00;0.00;;;;;;;29.09;49.04;100196.41;5045517;28;20068;-65
2021/06/25 05:31:44;;;;;;;0.10;0.00;;;;;;;29.02;49.35;100200.69;5017556;28;20048;-68
2021/06/25 05:34:09;;;;;;;0.00;0.00;;;;;;;29.08;48.83;100196.53;5038293;28;20084;-64
2021/06/25 05:36:35;;;;;;;0.00;0.00;;;;;;;29.15;48.91;100203.19;5021039;28;20099;-67
2021/06/25 05:39:01;;;;;;;0.00;0.00;;;;;;;29.21;49.24;100200.78;5028473;28;20619;-68
2021/06/25 05:41:27;;;;;;;0.00;0.00;;;;;;;29.28;49.43;100184.69;5041537;28;20041;-67
2021/06/25 05:43:52;;;;;;;0.00;0.00;;;;;;;29.39;49.00;100195.50;5033440;28;20136;-68
2021/06/25 05:46:18;;;;;;;0.00;0.00;;;;;;;29.54;48.75;100196.81;5036488;28;20127;-70
2021/06/25 05:48:44;;;;;;;0.00;0.00;;;;;;;29.62;48.62;100197.03;5014135;28;20406;-67
2021/06/25 05:51:10;;;;;;;0.00;0.00;;;;;;;29.65;47.97;100193.19;5038235;28;20131;-68
2021/06/25 05:53:38;;;;;;;0.00;0.00;;;;;;;29.61;48.01;100191.72;5026968;28;20045;-65
2021/06/25 05:56:06;;;;;;;0.00;0.00;;;;;;;29.56;47.51;100200.31;5005318;28;20366;-66
2021/06/25 05:58:32;;;;;;;0.00;0.00;;;;;;;29.67;47.55;100185.69;5011757;28;20502;-65
2021/06/25 06:00:58;;;;;;;0.00;0.00;;;;;;;29.63;48.04;100181.50;4995658;28;20175;-64
2021/06/25 06:03:24;;;;;;;0.00;0.00;;;;;;;29.75;47.68;100189.44;5011080;28;20143;-70
2021/06/25 06:05:50;;;;;;;0.00;0.00;;;;;;;29.84;47.60;100194.06;5000365;28;20413;-66
2021/06/25 06:08:15;;;;;;;0.00;0.00;;;;;;;29.61;49.13;100205.41;5012782;28;20041;-65
2021/06/25 06:10:41;;;;;;;0.00;0.00;;;;;;;29.70;48.56;100201.81;5019036;28;20505;-66
2021/06/25 06:13:07;;;;;;;0.00;0.00;;;;;;;29.56;49.33;100187.50;5014448;28;20277;-66
2021/06/25 06:15:34;;;;;;;0.00;0.00;;;;;;;29.66;49.76;100214.03;5030020;28;20098;-64
2021/06/25 06:18:02;;;;;;;0.00;0.00;;;;;;;29.56;50.13;100217.59;5021011;28;20041;-66
2021/06/25 06:20:29;;;;;;;0.00;0.00;;;;;;;29.58;50.17;100217.44;5036893;28;20163;-67
2021/06/25 06:34:12;;;;;;;0.00;0.00;;;;;;;29.81;47.56;100224.41;5031856;28;20068;-68
2021/06/25 06:36:32;;;;;;;0.00;0.00;;;;;;;29.89;48.44;100215.53;5032338;28;20559;-67
2021/06/25 06:39:02;;;;;;;0.00;0.00;;;;;;;29.97;47.52;100215.69;5018582;28;20577;-65
2021/06/25 06:41:31;;;;;;;0.05;0.00;;;;;;;29.96;44.37;100219.41;5026893;28;20056;-66
2021/06/25 06:43:58;;;;;;;0.00;0.00;;;;;;;29.91;45.83;100206.16;5025298;28;20041;-65
2021/06/25 06:46:30;;;;;;;0.00;0.00;;;;;;;30.06;46.27;100226.59;5039788;28;20120;-67
2021/06/25 06:48:58;;;;;;;0.00;0.00;;;;;;;30.18;45.28;100233.75;5017376;28;20099;-65
2021/06/25 06:51:24;;;;;;;0.00;0.00;;;;;;;30.21;44.53;100229.84;5029832;28;20041;-64
2021/06/25 06:53:51;;;;;;;0.00;0.00;;;;;;;30.31;44.93;100236.16;5030757;28;20045;-64
2021/06/25 06:56:20;;;;;;;0.00;0.00;;;;;;;30.40;44.24;100240.78;5036498;28;20099;-64
2021/06/25 06:58:48;;;;;;;0.00;0.00;;;;;;;30.34;44.51;100241.34;5047859;28;20044;-64
2021/06/25 07:01:14;;;;;;;0.00;0.00;;;;;;;30.50;44.32;100247.13;5040778;28;20041;-66
2021/06/25 07:03:42;;;;;;;0.00;0.00;;;;;;;30.62;44.49;100238.63;5027430;28;20041;-65
2021/06/25 07:06:08;;;;;;;0.00;0.00;;;;;;;30.83;44.37;100243.94;5011629;28;20037;-64
2021/06/25 07:08:34;;;;;;;0.00;0.00;;;;;;;30.85;44.68;100253.72;5033455;28;20049;-66
2021/06/25 07:11:01;;;;;;;0.20;0.00;;;;;;;31.07;44.72;100245.19;5038221;28;20049;-66
2021/06/25 07:13:27;;;;;;;0.00;0.00;;;;;;;31.11;44.63;100235.66;5039182;28;20386;-65
2021/06/25 07:15:55;;;;;;;0.00;0.00;;;;;;;31.24;44.07;100249.91;5023841;28;20037;-63
2021/06/25 07:18:23;;;;;;;0.00;0.00;;;;;;;31.36;44.09;100239.63;5011917;28;20062;-66
2021/06/25 07:20:52;;;;;;;0.00;0.00;;;;;;;31.50;44.06;100226.28;5035959;28;20051;-65
2021/06/25 07:23:18;;;;;;;0.00;0.00;;;;;;;31.88;41.68;100231.56;5038445;28;20041;-65
2021/06/25 07:25:46;;;;;;;0.00;0.00;;;;;;;32.14;40.41;100249.00;5039418;28;20124;-64
2021/06/25 07:28:12;;;;;;;0.00;0.00;;;;;;;32.36;40.06;100237.59;5037514;28;20060;-66
2021/06/25 07:30:38;;;;;;;0.00;0.00;;;;;;;32.65;39.89;100221.72;5014877;28;20080;-66
2021/06/25 07:33:06;;;;;;;0.00;0.00;;;;;;;32.89;37.56;100243.94;5025213;28;20501;-66
2021/06/25 07:35:32;;;;;;;0.22;0.00;;;;;;;32.69;38.66;100250.59;5017416;28;20045;-66
2021/06/25 07:37:58;;;;;;;0.00;0.00;;;;;;;33.06;38.04;100237.50;5005270;28;20540;-65
2021/06/25 07:40:24;;;;;;;0.00;0.00;;;;;;;33.09;36.96;100239.94;5016019;28;20037;-66
2021/06/25 07:42:50;;;;;;;0.05;0.00;;;;;;;33.25;37.33;100237.28;5018123;28;20041;-66
2021/06/25 07:45:16;;;;;;;0.00;0.00;;;;;;;33.77;37.33;100237.22;5042071;28;20038;-66
2021/06/25 07:47:44;;;;;;;0.00;0.00;;;;;;;34.07;36.30;100229.25;5038163;28;20052;-65
2021/06/25 07:50:13;;;;;;;0.00;0.00;;;;;;;34.44;35.44;100231.59;5032977;28;20052;-67
2021/06/25 07:52:40;;;;;;;0.00;0.00;;;;;;;35.05;34.78;100224.50;5026232;28;20048;-65
2021/06/25 07:55:09;;;;;;;0.00;0.00;;;;;;;34.98;33.18;100217.97;5034862;28;20064;-65
2021/06/25 07:57:35;;;;;;;0.00;0.00;;;;;;;34.81;34.85;100229.19;5044558;28;20526;-66
2021/06/25 08:00:00;;;;;;;0.00;0.00;;;;;;;35.46;34.09;100219.75;5033531;28;20050;-66
2021/06/25 08:02:27;;;;;;;0.00;0.00;;;;;;;35.43;34.30;100222.91;5039837;28;20092;-65
2021/06/25 08:04:52;;;;;;;0.00;0.00;;;;;;;34.86;34.63;100205.59;5037307;28;20144;-66
2021/06/25 08:07:18;;;;;;;0.00;0.00;;;;;;;35.35;32.88;100207.22;5041319;28;20049;-66
2021/06/25 08:09:44;;;;;;;0.00;0.00;;;;;;;36.28;32.12;100207.13;5045353;28;20440;-66
2021/06/25 08:12:12;;;;;;;0.00;0.00;;;;;;;35.76;31.82;100213.47;5044820;28;20056;-64
2021/06/25 08:14:39;;;;;;;0.00;0.00;;;;;;;35.98;31.72;100213.50;5022935;28;20068;-66
2021/06/25 08:17:08;;;;;;;0.00;0.00;;;;;;;36.03;32.11;100207.44;5022813;28;20132;-65
2021/06/25 08:19:35;;;;;;;0.00;0.00;;;;;;;36.70;30.93;100210.25;5041585;28;20088;-65
2021/06/25 08:22:01;;;;;;;0.10;0.10;;;;;;;37.03;30.40;100204.41;5021133;28;20141;-65
2021/06/25 08:24:31;;;;;;;0.10;0.00;;;;;;;37.27;30.04;100209.69;5040200;28;20040;-65
2021/06/25 08:26:58;;;;;;;0.10;0.00;;;;;;;38.20;28.86;100219.94;5023815;28;20041;-65
2021/06/25 08:29:24;;;;;;;0.00;0.00;;;;;;;37.89;27.40;100209.13;5022875;28;20140;-65
2021/06/25 08:31:49;;;;;;;0.00;0.00;;;;;;;38.23;26.94;100231.47;5045005;28;20048;-66
2021/06/25 08:34:15;;;;;;;0.03;0.03;;;;;;;39.48;26.31;100254.69;5039802;28;20041;-69
2021/06/25 08:36:42;;;;;;;0.10;0.10;;;;;;;39.56;26.38;100256.41;5036695;28;20056;-67
2021/06/25 08:39:08;;;;;;;0.10;0.10;;;;;;;39.31;25.98;100253.22;5040011;28;20363;-67
2021/06/25 08:41:37;;;;;;;0.10;0.00;;;;;;;36.72;28.90;100229.41;5006250;28;20060;-66
2021/06/25 08:44:05;;;;;;;0.00;0.00;;;;;;;34.14;32.19;100215.66;5044376;28;20044;-65
2021/06/25 08:46:32;;;;;;;0.00;0.00;;;;;;;33.06;33.60;100232.00;5034867;28;20034;-70
2021/06/25 08:49:03;;;;;;;0.00;0.00;;;;;;;32.58;35.36;100236.25;5045195;28;20067;-67
2021/06/25 08:51:29;;;;;;;0.20;0.10;;;;;;;32.07;35.32;100230.59;5024778;28;20046;-72
2021/06/25 08:53:55;;;;;;;0.05;0.00;;;;;;;31.63;35.09;100245.97;5042674;28;20048;-65
2021/06/25 08:56:20;;;;;;;0.00;0.00;;;;;;;31.11;36.09;100249.34;5033751;28;20042;-68
2021/06/25 08:58:46;;;;;;;0.00;0.00;;;;;;;30.72;37.77;100227.66;5005530;28;20116;-68
2021/06/25 09:01:15;;;;;;;0.00;0.00;;;;;;;30.19;39.57;100220.91;5011179;28;20394;-66
2021/06/25 09:03:49;;;;;;;0.00;0.00;;;;;;;30.43;40.14;100237.75;5020457;28;20520;-66
2021/06/25 09:06:15;;;;;;;0.00;0.00;;;;;;;30.46;40.37;100213.69;5042545;28;20044;-65
2021/06/25 09:08:42;;;;;;;0.00;0.00;;;;;;;30.24;41.93;100233.16;5020093;28;20076;-68
2021/06/25 09:11:21;;;;;;;0.00;0.00;;;;;;;30.18;41.82;100232.84;4988102;28;20177;-65
2021/06/25 09:14:01;;;;;;;0.00;0.00;;;;;;;30.20;41.79;100234.44;5016735;28;20535;-66
2021/06/25 09:16:30;;;;;;;0.00;0.00;;;;;;;30.08;41.86;100230.06;5023031;28;20068;-65
2021/06/25 09:19:05;;;;;;;0.00;0.00;;;;;;;29.95;42.56;100231.34;5005454;28;20423;-66
2021/06/25 09:21:39;;;;;;;0.00;0.00;;;;;;;29.85;42.95;100235.97;5006110;28;20515;-67
2021/06/25 09:24:23;;;;;;;0.00;0.00;;;;;;;29.79;42.80;100239.25;5023972;28;20052;-68
2021/06/25 09:27:02;;;;;;;0.00;0.00;;;;;;;29.59;43.90;100249.28;5037977;28;20080;-66
2021/06/25 09:29:35;;;;;;;0.00;0.00;;;;;;;29.62;44.60;100248.97;5022376;28;20049;-67
2021/06/25 09:32:05;;;;;;;0.00;0.00;;;;;;;29.45;45.53;100238.69;5024088;28;20099;-67
2021/06/25 09:34:49;;;;;;;0.00;0.00;;;;;;;29.22;46.04;100224.34;5005017;28;20045;-68
2021/06/25 09:37:17;;;;;;;0.00;0.00;;;;;;;29.23;46.41;100244.34;5033585;28;20068;-68
2021/06/25 09:40:02;;;;;;;0.00;0.00;;;;;;;29.08;47.20;100240.25;5043662;28;20036;-68
2021/06/25 09:42:29;;;;;;;0.00;0.00;;;;;;;29.06;47.18;100240.38;5016194;28;20266;-66
2021/06/25 09:45:08;;;;;;;0.00;0.00;;;;;;;29.34;45.88;100236.91;5015950;28;20085;-70
2021/06/25 09:47:38;;;;;;;0.00;0.00;;;;;;;29.39;44.50;100245.56;5007859;28;20073;-68
2021/06/25 09:50:28;;;;;;;0.00;0.00;;;;;;;29.54;44.24;100255.13;5008702;28;20056;-69
2021/06/25 09:52:58;;;;;;;0.00;0.00;;;;;;;29.61;43.81;100249.97;5006157;28;20053;-68
2021/06/25 09:55:28;;;;;;;0.00;0.00;;;;;;;29.77;43.87;100254.94;5021238;28;20065;-69
2021/06/25 09:58:26;;;;;;;0.00;0.00;;;;;;;29.88;43.91;100257.53;5021651;28;20488;-69
2021/06/25 10:04:00;;;;;;;0.00;0.00;;;;;;;30.02;42.98;100240.72;5008960;28;20060;-70
2021/06/25 10:06:31;;;;;;;0.00;0.00;;;;;;;30.00;42.95;100229.03;5026710;28;20114;-66
2021/06/25 10:08:59;;;;;;;0.20;0.00;;;;;;;30.02;42.37;100214.22;5030241;28;20089;-67
2021/06/25 10:11:28;;;;;;;0.00;0.00;;;;;;;30.07;42.39;100179.09;5036626;28;20470;-66
2021/06/25 10:14:00;;;;;;;0.00;0.00;;;;;;;30.42;41.24;100212.28;5040279;28;20059;-71
2021/06/25 10:16:28;;;;;;;0.00;0.00;;;;;;;30.52;40.91;100217.69;5036876;28;20572;-70
2021/06/25 10:18:57;;;;;;;0.00;0.00;;;;;;;30.61;40.11;100214.97;5021765;28;20083;-68
2021/06/25 10:21:31;;;;;;;0.00;0.00;;;;;;;30.71;39.81;100221.34;5032683;28;20041;-71
2021/06/25 10:24:01;;;;;;;0.00;0.00;;;;;;;30.96;39.70;100226.16;5040391;28;20158;-67
2021/06/25 10:26:27;;;;;;;0.00;0.00;;;;;;;31.19;39.48;100229.41;5035853;28;20670;-66
2021/06/25 10:28:55;;;;;;;0.00;0.00;;;;;;;31.42;39.11;100233.53;5017533;28;20046;-67
2021/06/25 10:31:25;;;;;;;0.00;0.00;;;;;;;31.69;38.92;100237.16;5040907;28;20041;-66
2021/06/25 10:33:53;;;;;;;0.00;0.00;;;;;;;31.87;38.64;100239.94;5040216;28;20048;-68
2021/06/25 10:36:25;;;;;;;0.00;0.00;;;;;;;32.25;38.21;100231.44;5018814;28;20148;-67
2021/06/25 10:38:53;;;;;;;0.00;0.00;;;;;;;32.66;36.88;100222.56;5001942;28;20090;-66
2021/06/25 10:41:22;;;;;;;0.00;0.00;;;;;;;33.13;35.79;100230.34;5022423;28;20410;-65
2021/06/25 10:43:52;;;;;;;0.00;0.00;;;;;;;33.52;35.13;100229.88;5038092;28;20040;-71
2021/06/25 10:46:26;;;;;;;0.00;0.00;;;;;;;33.85;34.69;100234.53;5002612;28;20063;-66
2021/06/25 10:48:55;;;;;;;0.00;0.00;;;;;;;33.91;34.19;100215.44;5012503;28;20091;-68
2021/06/25 10:51:35;;;;;;;0.00;0.00;;;;;;;34.33;33.93;100220.91;5034512;28;20089;-65
2021/06/25 10:54:10;;;;;;;0.00;0.00;;;;;;;34.47;33.60;100209.19;5036177;28;20063;-66
2021/06/25 10:57:03;;;;;;;0.00;0.00;;;;;;;34.64;33.42;100208.16;5040151;28;20037;-68
2021/06/25 10:59:31;;;;;;;0.00;0.00;;;;;;;34.66;33.08;100193.19;5040335;28;20437;-64
2021/06/25 11:02:04;;;;;;;0.00;0.00;;;;;;;34.72;32.83;100200.72;5022628;28;20055;-67
2021/06/25 11:04:30;;;;;;;0.00;0.00;;;;;;;34.53;32.78;100192.81;5015845;28;20603;-70
2021/06/25 11:06:58;;;;;;;0.00;0.00;;;;;;;34.48;32.81;100188.88;5029298;28;20331;-66
2021/06/25 11:09:28;;;;;;;0.08;0.00;;;;;;;34.55;32.85;100188.00;5037781;28;20167;-70
2021/06/25 11:12:13;;;;;;;0.00;0.00;;;;;;;34.13;33.70;100183.66;5039907;28;20053;-67
2021/06/25 11:14:39;;;;;;;0.00;0.00;;;;;;;33.89;34.93;100159.69;5035440;28;20136;-70
2021/06/25 11:17:05;;;;;;;0.00;0.00;;;;;;;33.94;34.48;100184.84;5041351;28;20139;-72
2021/06/25 11:19:36;;;;;;;0.00;0.00;;;;;;;33.79;34.06;100164.47;5026767;28;20101;-71
2021/06/25 11:22:02;;;;;;;;;;;;;;;33.71;35.06;100185.59;5031528;28;20049;-66
2021/06/25 11:24:49;;;;;;;0.10;0.00;;;;;;;33.65;35.29;100164.25;5035769;28;19931;-67
2021/06/25 11:27:15;;;;;;;0.00;0.00;;;;;;;33.50;35.73;100163.19;5038827;28;20142;-68
2021/06/25 11:29:43;;;;;;;0.00;0.00;;;;;;;33.61;35.18;100160.13;5043449;28;20049;-71
2021/06/25 11:32:11;;;;;;;0.00;0.00;;;;;;;33.81;34.89;100186.31;5040383;28;20052;-69
2021/06/25 11:34:37;;;;;;;0.00;0.00;;;;;;;34.00;33.80;100172.28;5034034;28;20129;-69
2021/06/25 11:37:03;;;;;;;0.00;0.00;;;;;;;34.33;32.83;100174.06;5021178;28;20047;-69
2021/06/25 11:39:33;;;;;;;0.00;0.00;;;;;;;34.75;33.25;100191.25;5029037;28;20045;-69
2021/06/25 11:42:11;;;;;;;0.00;0.00;;;;;;;34.79;33.27;100187.13;5036131;28;20501;-68